sensor_id;sensor_type;location;lat;lon;timestamp;pressure;altitude;pressure_sealevel;temperature;humidity
55468;BME280;41332;42.702;23.200;2023-05-21T17:22:32;93727.72;;;15.87;56.97
55468;BME280;41332;42.702;23.200;2023-05-21T17:24:57;93732.28;;;15.90;56.90
55468;BME280;41332;42.702;23.200;2023-05-21T17:27:23;93734.22;;;15.93;57.27
55468;BME280;41332;42.702;23.200;2023-05-21T17:29:48;93738.38;;;15.94;56.74
55468;BME280;41332;42.702;23.200;2023-05-21T17:32:13;93738.03;;;15.96;56.28
55468;BME280;41332;42.702;23.200;2023-05-21T17:34:39;93734.75;;;16.06;55.91
55468;BME280;41332;42.702;23.200;2023-05-21T17:37:04;93727.13;;;16.01;55.99
55468;BME280;41332;42.702;23.200;2023-05-21T17:39:30;93735.88;;;16.05;56.48
55468;BME280;41332;42.702;23.200;2023-05-21T17:41:55;93729.81;;;16.08;55.89
55468;BME280;41332;42.702;23.200;2023-05-21T17:44:21;93733.28;;;16.12;56.02
55468;BME280;41332;42.702;23.200;2023-05-21T17:46:49;93727.13;;;16.05;56.18
55468;BME280;41332;42.702;23.200;2023-05-21T17:49:15;93736.22;;;16.04;56.30
55468;BME280;41332;42.702;23.200;2023-05-21T17:51:42;93729.00;;;16.01;56.29
55468;BME280;41332;42.702;23.200;2023-05-21T17:54:07;93732.28;;;15.90;56.35
55468;BME280;41332;42.702;23.200;2023-05-21T17:56:33;93736.09;;;15.93;56.67
55468;BME280;41332;42.702;23.200;2023-05-21T17:59:06;93734.91;;;15.87;56.76
55468;BME280;41332;42.702;23.200;2023-05-21T18:01:33;93743.94;;;15.82;56.97
55468;BME280;41332;42.702;23.200;2023-05-21T18:03:59;93748.34;;;15.74;57.70
55468;BME280;41332;42.702;23.200;2023-05-21T18:06:24;93742.50;;;15.58;58.24
55468;BME280;41332;42.702;23.200;2023-05-21T18:08:50;93741.28;;;15.52;58.44
55468;BME280;41332;42.702;23.200;2023-05-21T18:11:15;93746.88;;;15.46;58.79
55468;BME280;41332;42.702;23.200;2023-05-21T18:13:41;93748.88;;;15.53;58.36
55468;BME280;41332;42.702;23.200;2023-05-21T18:16:06;93753.69;;;15.47;58.76
55468;BME280;41332;42.702;23.200;2023-05-21T18:18:31;93750.34;;;15.51;59.10
55468;BME280;41332;42.702;23.200;2023-05-21T18:20:57;93764.03;;;15.56;58.75
55468;BME280;41332;42.702;23.200;2023-05-21T18:23:22;93761.03;;;15.31;59.86
55468;BME280;41332;42.702;23.200;2023-05-21T18:25:48;93758.19;;;15.13;60.29
55468;BME280;41332;42.702;23.200;2023-05-21T18:28:13;93756.09;;;14.99;60.88
55468;BME280;41332;42.702;23.200;2023-05-21T18:30:39;93756.94;;;15.07;60.80
55468;BME280;41332;42.702;23.200;2023-05-21T18:33:04;93771.44;;;14.90;61.45
55468;BME280;41332;42.702;23.200;2023-05-21T18:35:30;93767.91;;;14.82;61.53
55468;BME280;41332;42.702;23.200;2023-05-21T18:37:56;93768.56;;;14.75;61.63
55468;BME280;41332;42.702;23.200;2023-05-21T18:40:21;93770.56;;;14.82;61.81
55468;BME280;41332;42.702;23.200;2023-05-21T18:42:49;93772.13;;;14.87;61.87
55468;BME280;41332;42.702;23.200;2023-05-21T18:45:15;93772.25;;;14.94;61.94
55468;BME280;41332;42.702;23.200;2023-05-21T18:47:40;93777.91;;;14.92;62.11
55468;BME280;41332;42.702;23.200;2023-05-21T18:50:11;93776.03;;;14.70;63.10
55468;BME280;41332;42.702;23.200;2023-05-21T18:52:37;93785.84;;;14.69;63.48
55468;BME280;41332;42.702;23.200;2023-05-21T18:55:03;93785.22;;;14.56;63.96
55468;BME280;41332;42.702;23.200;2023-05-21T18:57:29;93790.03;;;14.50;64.04
55468;BME280;41332;42.702;23.200;2023-05-21T18:59:55;93793.47;;;14.55;64.23
55468;BME280;41332;42.702;23.200;2023-05-21T19:02:20;93800.38;;;14.59;64.33
55468;BME280;41332;42.702;23.200;2023-05-21T19:04:46;93800.00;;;14.61;63.80
55468;BME280;41332;42.702;23.200;2023-05-21T19:07:12;93806.47;;;14.63;63.56
55468;BME280;41332;42.702;23.200;2023-05-21T19:09:39;93806.69;;;14.55;63.46
55468;BME280;41332;42.702;23.200;2023-05-21T19:12:05;93821.09;;;14.57;63.51
55468;BME280;41332;42.702;23.200;2023-05-21T19:14:31;93808.03;;;14.64;62.37
55468;BME280;41332;42.702;23.200;2023-05-21T19:16:56;93814.06;;;14.65;62.83
55468;BME280;41332;42.702;23.200;2023-05-21T19:19:22;93816.84;;;14.72;62.74
55468;BME280;41332;42.702;23.200;2023-05-21T19:21:47;93817.66;;;14.76;62.90
55468;BME280;41332;42.702;23.200;2023-05-21T19:24:16;93811.56;;;14.72;62.96
55468;BME280;41332;42.702;23.200;2023-05-21T19:26:42;93807.88;;;14.57;63.74
55468;BME280;41332;42.702;23.200;2023-05-21T19:29:07;93807.78;;;14.50;64.51
55468;BME280;41332;42.702;23.200;2023-05-21T19:31:34;93806.41;;;14.60;64.47
55468;BME280;41332;42.702;23.200;2023-05-21T19:34:01;93810.19;;;14.59;64.49
55468;BME280;41332;42.702;23.200;2023-05-21T19:36:28;93812.31;;;14.49;64.93
55468;BME280;41332;42.702;23.200;2023-05-21T19:38:54;93808.38;;;14.63;64.41
55468;BME280;41332;42.702;23.200;2023-05-21T19:41:19;93809.13;;;14.63;64.61
55468;BME280;41332;42.702;23.200;2023-05-21T19:43:46;93813.66;;;14.63;64.62
55468;BME280;41332;42.702;23.200;2023-05-21T19:46:11;93809.97;;;14.67;64.44
55468;BME280;41332;42.702;23.200;2023-05-21T19:48:37;93818.31;;;14.70;64.09
55468;BME280;41332;42.702;23.200;2023-05-21T19:51:02;93816.38;;;14.66;64.08
55468;BME280;41332;42.702;23.200;2023-05-21T19:53:28;93810.22;;;14.62;64.46
55468;BME280;41332;42.702;23.200;2023-05-21T19:55:53;93818.06;;;14.55;65.25
55468;BME280;41332;42.702;23.200;2023-05-21T19:58:19;93812.75;;;14.55;65.40
55468;BME280;41332;42.702;23.200;2023-05-21T20:00:48;93816.53;;;14.54;64.40
55468;BME280;41332;42.702;23.200;2023-05-21T20:03:15;93826.13;;;14.43;65.14
55468;BME280;41332;42.702;23.200;2023-05-21T20:05:41;93830.19;;;14.37;65.30
55468;BME280;41332;42.702;23.200;2023-05-21T20:08:07;93837.22;;;14.29;66.13
55468;BME280;41332;42.702;23.200;2023-05-21T20:10:32;93828.94;;;14.30;67.99
55468;BME280;41332;42.702;23.200;2023-05-21T20:12:57;93825.13;;;14.28;67.58
55468;BME280;41332;42.702;23.200;2023-05-21T20:15:23;93829.97;;;14.26;67.13
55468;BME280;41332;42.702;23.200;2023-05-21T20:17:48;93821.97;;;14.22;68.01
55468;BME280;41332;42.702;23.200;2023-05-21T20:20:14;93821.16;;;14.18;68.30
55468;BME280;41332;42.702;23.200;2023-05-21T20:22:41;93818.13;;;14.16;68.82
55468;BME280;41332;42.702;23.200;2023-05-21T20:25:06;93830.06;;;14.10;69.36
55468;BME280;41332;42.702;23.200;2023-05-21T20:27:33;93828.38;;;14.01;69.92
55468;BME280;41332;42.702;23.200;2023-05-21T20:29:59;93833.66;;;14.01;69.50
55468;BME280;41332;42.702;23.200;2023-05-21T20:32:24;93829.63;;;14.08;69.33
55468;BME280;41332;42.702;23.200;2023-05-21T20:34:50;93826.59;;;14.06;69.46
55468;BME280;41332;42.702;23.200;2023-05-21T20:37:15;93826.59;;;14.06;70.29
55468;BME280;41332;42.702;23.200;2023-05-21T20:39:41;93827.28;;;14.02;70.15
55468;BME280;41332;42.702;23.200;2023-05-21T20:42:09;93822.41;;;13.85;69.75
55468;BME280;41332;42.702;23.200;2023-05-21T20:44:36;93822.81;;;13.87;70.04
55468;BME280;41332;42.702;23.200;2023-05-21T20:47:02;93824.44;;;13.92;69.97
55468;BME280;41332;42.702;23.200;2023-05-21T20:49:29;93826.28;;;13.91;70.35
55468;BME280;41332;42.702;23.200;2023-05-21T20:51:57;93821.78;;;13.92;70.28
55468;BME280;41332;42.702;23.200;2023-05-21T20:54:23;93819.78;;;13.85;70.61
55468;BME280;41332;42.702;23.200;2023-05-21T20:56:48;93821.50;;;13.77;71.34
55468;BME280;41332;42.702;23.200;2023-05-21T20:59:14;93826.28;;;13.72;71.30
55468;BME280;41332;42.702;23.200;2023-05-21T21:01:40;93828.09;;;13.67;71.65
55468;BME280;41332;42.702;23.200;2023-05-21T21:04:06;93825.44;;;13.67;71.07
55468;BME280;41332;42.702;23.200;2023-05-21T21:06:31;93826.16;;;13.64;71.19
55468;BME280;41332;42.702;23.200;2023-05-21T21:08:57;93833.91;;;13.57;72.03
55468;BME280;41332;42.702;23.200;2023-05-21T21:11:23;93831.19;;;13.54;72.00
55468;BME280;41332;42.702;23.200;2023-05-21T21:13:48;93829.69;;;13.52;71.65
55468;BME280;41332;42.702;23.200;2023-05-21T21:16:14;93831.41;;;13.45;71.36
55468;BME280;41332;42.702;23.200;2023-05-21T21:18:39;93826.44;;;13.43;71.22
55468;BME280;41332;42.702;23.200;2023-05-21T21:21:05;93826.78;;;13.42;71.31
55468;BME280;41332;42.702;23.200;2023-05-21T21:23:30;93831.13;;;13.34;71.92
55468;BME280;41332;42.702;23.200;2023-05-21T21:25:56;93826.00;;;13.25;72.27
55468;BME280;41332;42.702;23.200;2023-05-21T21:28:21;93830.09;;;13.23;72.05
55468;BME280;41332;42.702;23.200;2023-05-21T21:30:47;93834.63;;;13.22;71.86
55468;BME280;41332;42.702;23.200;2023-05-21T21:33:12;93831.63;;;13.24;71.61
55468;BME280;41332;42.702;23.200;2023-05-21T21:35:40;93840.25;;;13.21;72.13
55468;BME280;41332;42.702;23.200;2023-05-21T21:38:05;93835.59;;;13.14;72.80
55468;BME280;41332;42.702;23.200;2023-05-21T21:40:30;93839.75;;;13.15;72.13
55468;BME280;41332;42.702;23.200;2023-05-21T21:42:57;93844.50;;;13.09;72.92
55468;BME280;41332;42.702;23.200;2023-05-21T21:45:22;93835.25;;;12.99;73.82
55468;BME280;41332;42.702;23.200;2023-05-21T21:47:47;93831.50;;;13.00;73.47
55468;BME280;41332;42.702;23.200;2023-05-21T21:50:13;93840.53;;;12.99;72.80
55468;BME280;41332;42.702;23.200;2023-05-21T21:52:38;93836.69;;;12.97;73.25
55468;BME280;41332;42.702;23.200;2023-05-21T21:55:08;93846.91;;;12.98;73.50
55468;BME280;41332;42.702;23.200;2023-05-21T21:57:34;93843.56;;;13.01;72.91
55468;BME280;41332;42.702;23.200;2023-05-21T22:00:00;93845.44;;;13.01;73.12
55468;BME280;41332;42.702;23.200;2023-05-21T22:02:26;93843.81;;;12.96;72.49
55468;BME280;41332;42.702;23.200;2023-05-21T22:04:51;93843.47;;;12.98;72.95
55468;BME280;41332;42.702;23.200;2023-05-21T22:07:16;93842.13;;;13.04;74.06
55468;BME280;41332;42.702;23.200;2023-05-21T22:09:43;93835.84;;;13.09;74.23
55468;BME280;41332;42.702;23.200;2023-05-21T22:12:09;93833.97;;;13.09;73.60
55468;BME280;41332;42.702;23.200;2023-05-21T22:14:35;93832.94;;;13.14;73.76
55468;BME280;41332;42.702;23.200;2023-05-21T22:17:01;93832.59;;;13.15;73.79
55468;BME280;41332;42.702;23.200;2023-05-21T22:19:27;93825.13;;;13.17;73.83
55468;BME280;41332;42.702;23.200;2023-05-21T22:21:52;93817.47;;;13.12;73.64
55468;BME280;41332;42.702;23.200;2023-05-21T22:24:35;93824.94;;;13.10;74.99
55468;BME280;41332;42.702;23.200;2023-05-21T22:27:01;93820.78;;;13.09;74.55
55468;BME280;41332;42.702;23.200;2023-05-21T22:29:26;93823.06;;;13.11;74.24
55468;BME280;41332;42.702;23.200;2023-05-21T22:31:52;93819.19;;;13.05;75.49
55468;BME280;41332;42.702;23.200;2023-05-21T22:34:17;93815.66;;;13.00;75.61
55468;BME280;41332;42.702;23.200;2023-05-21T22:36:42;93812.19;;;12.96;75.91
55468;BME280;41332;42.702;23.200;2023-05-21T22:39:08;93807.19;;;12.91;76.57
55468;BME280;41332;42.702;23.200;2023-05-21T22:41:34;93801.66;;;12.96;76.72
55468;BME280;41332;42.702;23.200;2023-05-21T22:43:59;93802.16;;;13.02;77.17
55468;BME280;41332;42.702;23.200;2023-05-21T22:46:25;93803.44;;;12.92;77.39
55468;BME280;41332;42.702;23.200;2023-05-21T22:48:53;93798.09;;;12.89;77.72
55468;BME280;41332;42.702;23.200;2023-05-21T22:51:19;93799.97;;;12.88;77.74
55468;BME280;41332;42.702;23.200;2023-05-21T22:53:44;93801.91;;;12.91;77.78
55468;BME280;41332;42.702;23.200;2023-05-21T22:56:09;93791.81;;;12.93;78.47
55468;BME280;41332;42.702;23.200;2023-05-21T22:58:35;93794.84;;;12.95;78.40
55468;BME280;41332;42.702;23.200;2023-05-21T23:01:00;93804.38;;;13.00;78.36
55468;BME280;41332;42.702;23.200;2023-05-21T23:03:26;93797.06;;;12.93;78.69
55468;BME280;41332;42.702;23.200;2023-05-21T23:05:51;93791.09;;;12.96;77.96
55468;BME280;41332;42.702;23.200;2023-05-21T23:08:17;93797.56;;;12.99;77.87
55468;BME280;41332;42.702;23.200;2023-05-21T23:10:42;93800.13;;;12.95;77.71
55468;BME280;41332;42.702;23.200;2023-05-21T23:13:07;93806.56;;;12.98;77.22
55468;BME280;41332;42.702;23.200;2023-05-21T23:15:33;93803.53;;;12.96;77.56
55468;BME280;41332;42.702;23.200;2023-05-21T23:17:58;93797.41;;;12.92;77.45
55468;BME280;41332;42.702;23.200;2023-05-21T23:20:24;93804.03;;;12.85;77.78
55468;BME280;41332;42.702;23.200;2023-05-21T23:22:50;93798.59;;;12.78;77.54
55468;BME280;41332;42.702;23.200;2023-05-21T23:25:15;93801.56;;;12.77;77.42
55468;BME280;41332;42.702;23.200;2023-05-21T23:27:41;93796.56;;;12.72;77.11
55468;BME280;41332;42.702;23.200;2023-05-21T23:30:07;93791.53;;;12.50;77.89
55468;BME280;41332;42.702;23.200;2023-05-21T23:32:33;93791.25;;;12.40;78.83
55468;BME280;41332;42.702;23.200;2023-05-21T23:34:58;93792.28;;;12.35;79.18
55468;BME280;41332;42.702;23.200;2023-05-21T23:37:23;93783.59;;;12.34;79.58
55468;BME280;41332;42.702;23.200;2023-05-21T23:39:49;93785.94;;;12.36;79.48
55468;BME280;41332;42.702;23.200;2023-05-21T23:42:16;93785.72;;;12.29;80.36
55468;BME280;41332;42.702;23.200;2023-05-21T23:44:41;93789.13;;;12.29;80.80
55468;BME280;41332;42.702;23.200;2023-05-21T23:47:07;93785.84;;;12.32;80.55
55468;BME280;41332;42.702;23.200;2023-05-21T23:49:32;93785.72;;;12.29;80.65
55468;BME280;41332;42.702;23.200;2023-05-21T23:51:58;93780.03;;;12.27;80.33
55468;BME280;41332;42.702;23.200;2023-05-21T23:54:23;93783.84;;;12.29;80.28
55468;BME280;41332;42.702;23.200;2023-05-21T23:56:48;93786.84;;;12.28;80.09
55468;BME280;41332;42.702;23.200;2023-05-21T23:59:14;93782.59;;;12.23;80.64
